Time;durP1;ratioP1;P1;durP2;ratioP2;P2;SDS_P1;SDS_P2;PMS_P1;PMS_P2;Temp;Humidity;BMP_temperature;BMP_pressure;BME280_temperature;BME280_humidity;BME280_pressure;Samples;Min_cycle;Max_cycle;Signal;HPM_P1;HPM_P2
2023/04/23 00:02:10;;;;;;;;;;;;;;;12.84;82.26;99694.75;5092904;28;20363;-35
2023/04/23 00:04:37;;;;;;;;;;;;;;;12.72;84.33;99691.19;5092596;28;20291;-37
2023/04/23 00:07:03;;;;;;;;;;;;;;;12.55;84.26;99690.09;5092607;28;19912;-36
2023/04/23 00:09:30;;;;;;;;;;;;;;;12.55;84.22;99693.56;5093174;28;20010;-36
2023/04/23 00:11:56;;;;;;;;;;;;;;;12.76;83.12;99686.22;5092545;28;19912;-37
2023/04/23 00:14:22;;;;;;;;;;;;;;;12.80;83.47;99693.56;5092600;28;19973;-38
2023/04/23 00:16:47;;;;;;;;;;;;;;;13.23;81.41;99692.75;5092426;28;19916;-38
2023/04/23 00:19:13;;;;;;;;;;;;;;;12.76;81.91;99695.03;5092519;28;19934;-38
2023/04/23 00:21:38;;;;;;;;;;;;;;;12.65;83.71;99701.91;5092882;28;20363;-37
2023/04/23 00:24:04;;;;;;;;;;;;;;;12.62;84.42;99698.84;5092647;28;19916;-37
2023/04/23 00:26:29;;;;;;;;;;;;;;;12.84;83.67;99705.44;5092355;28;19934;-37
2023/04/23 00:28:54;;;;;;;;;;;;;;;12.81;83.48;99705.91;5092526;28;20007;-38
2023/04/23 00:31:21;;;;;;;;;;;;;;;12.42;85.22;99717.69;5092313;28;19972;-36
2023/04/23 00:33:46;;;;;;;;;;;;;;;13.23;81.59;99716.78;5092598;28;19947;-37
2023/04/23 00:36:12;;;;;;;;;;;;;;;13.09;80.36;99718.75;5092311;28;19966;-37
2023/04/23 00:38:37;;;;;;;;;;;;;;;12.82;82.31;99712.84;5092312;28;19912;-37
2023/04/23 00:41:02;;;;;;;;;;;;;;;12.86;82.49;99716.72;5092632;28;19991;-37
2023/04/23 00:43:28;;;;;;;;;;;;;;;12.61;82.90;99714.06;5092347;28;19912;-37
2023/04/23 00:45:53;;;;;;;;;;;;;;;12.36;81.75;99718.56;5092277;28;20447;-37
2023/04/23 00:48:19;;;;;;;;;;;;;;;12.43;79.85;99725.50;5092642;28;20369;-37
2023/04/23 00:50:45;;;;;;;;;;;;;;;12.32;79.90;99721.66;5092319;28;19938;-37
2023/04/23 00:53:10;;;;;;;;;;;;;;;12.48;78.81;99730.16;5091938;28;20070;-37
2023/04/23 00:55:36;;;;;;;;;;;;;;;12.74;77.85;99717.63;5092314;28;19948;-37
2023/04/23 00:58:01;;;;;;;;;;;;;;;12.61;77.67;99726.59;5092151;28;19912;-37
2023/04/23 01:00:27;;;;;;;;;;;;;;;12.48;77.47;99728.31;5091679;28;19916;-37
2023/04/23 01:02:52;;;;;;;;;;;;;;;12.49;77.24;99729.97;5091821;28;20462;-36
2023/04/23 01:05:18;;;;;;;;;;;;;;;12.33;77.75;99728.59;5091832;28;19916;-36
2023/04/23 01:07:45;;;;;;;;;;;;;;;12.24;77.98;99726.41;5091868;28;20019;-37
2023/04/23 01:10:11;;;;;;;;;;;;;;;12.24;77.53;99729.91;5091922;28;20341;-37
2023/04/23 01:12:36;;;;;;;;;;;;;;;12.38;76.21;99717.31;5091816;28;19948;-37
2023/04/23 01:15:02;;;;;;;;;;;;;;;12.37;76.58;99725.53;5091603;28;19912;-37
2023/04/23 01:17:27;;;;;;;;;;;;;;;12.43;76.13;99720.16;5091912;28;19920;-37
2023/04/23 01:19:52;;;;;;;;;;;;;;;12.13;77.29;99720.75;5091870;28;20284;-37
2023/04/23 01:22:18;;;;;;;;;;;;;;;12.04;77.48;99724.69;5091485;28;19961;-37
2023/04/23 01:24:44;;;;;;;;;;;;;;;12.24;77.07;99726.41;5091203;28;20505;-37
2023/04/23 01:27:10;;;;;;;;;;;;;;;12.21;76.33;99722.34;5092138;28;19913;-37
2023/04/23 01:29:35;;;;;;;;;;;;;;;12.14;76.84;99724.22;5091624;28;20037;-37
2023/04/23 01:32:01;;;;;;;;;;;;;;;12.10;76.31;99720.34;5091851;28;20398;-36
2023/04/23 01:34:26;;;;;;;;;;;;;;;12.15;75.59;99720.53;5091812;28;19977;-37
2023/04/23 01:36:53;;;;;;;;;;;;;;;12.03;76.15;99715.06;5091512;28;19912;-37
2023/04/23 01:39:18;;;;;;;;;;;;;;;11.89;76.62;99724.13;5091479;28;20360;-37
2023/04/23 01:41:44;;;;;;;;;;;;;;;11.76;78.00;99716.19;5091657;28;19912;-37
2023/04/23 01:44:09;;;;;;;;;;;;;;;11.89;77.63;99721.44;5091438;28;20390;-37
2023/04/23 01:46:35;;;;;;;;;;;;;;;11.80;78.08;99717.38;5091599;28;20384;-37
2023/04/23 01:49:00;;;;;;;;;;;;;;;12.01;77.15;99724.28;5091618;28;20411;-37
2023/04/23 01:51:25;;;;;;;;;;;;;;;11.82;77.63;99734.00;5091599;28;19916;-37
2023/04/23 01:53:51;;;;;;;;;;;;;;;11.51;77.94;99727.53;5091566;28;19916;-37
2023/04/23 01:56:18;;;;;;;;;;;;;;;11.57;78.85;99729.34;5091600;28;19923;-37
2023/04/23 01:58:44;;;;;;;;;;;;;;;11.66;78.26;99729.97;5091515;28;19919;-37
2023/04/23 02:01:09;;;;;;;;;;;;;;;11.58;78.32;99731.00;5091547;28;20284;-37
2023/04/23 02:03:34;;;;;;;;;;;;;;;11.60;77.63;99736.94;5091208;28;19919;-37
2023/04/23 02:06:00;;;;;;;;;;;;;;;11.54;77.48;99727.13;5091171;28;19920;-37
2023/04/23 02:08:25;;;;;;;;;;;;;;;11.37;78.96;99726.78;5091345;28;20295;-37
2023/04/23 02:10:51;;;;;;;;;;;;;;;11.20;79.34;99729.06;5091307;28;19947;-37
2023/04/23 02:13:16;;;;;;;;;;;;;;;11.37;79.41;99731.28;5094782;28;20011;-37
2023/04/23 02:15:42;;;;;;;;;;;;;;;11.20;78.83;99722.91;5095026;28;19986;-37
2023/04/23 02:18:07;;;;;;;;;;;;;;;11.26;79.11;99730.06;5094894;28;19912;-37
2023/04/23 02:20:35;;;;;;;;;;;;;;;11.21;79.50;99729.88;5094956;28;19912;-37
2023/04/23 02:23:01;;;;;;;;;;;;;;;11.39;79.17;99737.22;5095031;28;19935;-38
2023/04/23 02:25:26;;;;;;;;;;;;;;;11.29;78.75;99735.81;5094521;28;20380;-38
2023/04/23 02:27:51;;;;;;;;;;;;;;;11.09;79.84;99732.34;5094606;28;19973;-38
2023/04/23 02:30:16;;;;;;;;;;;;;;;11.02;79.84;99735.00;5094806;28;19935;-38
2023/04/23 02:32:42;;;;;;;;;;;;;;;10.98;79.68;99736.44;5094878;28;19916;-38
2023/04/23 02:35:09;;;;;;;;;;;;;;;11.26;79.07;99732.72;5094229;28;19940;-38
2023/04/23 02:37:35;;;;;;;;;;;;;;;11.30;77.83;99726.78;5094854;28;19954;-38
2023/04/23 02:40:01;;;;;;;;;;;;;;;11.30;77.86;99732.09;5094424;28;20365;-38
2023/04/23 02:42:26;;;;;;;;;;;;;;;11.01;78.71;99724.59;5094198;28;19920;-37
2023/04/23 02:44:51;;;;;;;;;;;;;;;11.23;79.19;99728.66;5094140;28;19920;-38
2023/04/23 02:47:17;;;;;;;;;;;;;;;11.44;77.30;99737.41;5094169;28;19970;-38
2023/04/23 02:49:42;;;;;;;;;;;;;;;11.27;77.29;99732.53;5094278;28;19919;-38
2023/04/23 02:52:07;;;;;;;;;;;;;;;11.44;77.64;99732.91;5094180;28;20307;-38
2023/04/23 02:54:33;;;;;;;;;;;;;;;11.19;77.25;99735.41;5094197;28;19920;-38
2023/04/23 02:56:58;;;;;;;;;;;;;;;11.09;79.04;99735.81;5094097;28;20418;-38
2023/04/23 02:59:24;;;;;;;;;;;;;;;11.16;78.74;99738.50;5094395;28;20262;-38
2023/04/23 03:01:50;;;;;;;;;;;;;;;11.08;78.22;99734.19;5094099;28;19919;-38
2023/04/23 03:04:16;;;;;;;;;;;;;;;11.29;77.04;99741.13;5093984;28;20308;-36
2023/04/23 03:06:42;;;;;;;;;;;;;;;11.44;76.44;99740.06;5093724;28;19927;-37
2023/04/23 03:09:07;;;;;;;;;;;;;;;11.29;76.37;99738.47;5093840;28;20391;-36
2023/04/23 03:11:33;;;;;;;;;;;;;;;11.27;76.63;99745.84;5093596;28;19912;-36
2023/04/23 03:13:58;;;;;;;;;;;;;;;11.10;75.91;99745.47;5093955;28;19973;-37
2023/04/23 03:16:23;;;;;;;;;;;;;;;11.04;76.68;99745.47;5094143;28;19912;-36
2023/04/23 03:18:48;;;;;;;;;;;;;;;10.94;76.85;99748.53;5092760;28;20003;-37
2023/04/23 03:21:14;;;;;;;;;;;;;;;11.22;75.13;99756.31;5094011;28;20680;-36
2023/04/23 03:23:39;;;;;;;;;;;;;;;11.17;75.62;99753.44;5093962;28;19912;-37
2023/04/23 03:26:04;;;;;;;;;;;;;;;11.38;74.01;99759.56;5093513;28;19924;-37
2023/04/23 03:28:30;;;;;;;;;;;;;;;11.23;74.60;99763.28;5093833;28;20001;-37
2023/04/23 03:30:55;;;;;;;;;;;;;;;11.20;74.57;99766.34;5093527;28;19920;-37
2023/04/23 03:33:20;;;;;;;;;;;;;;;11.10;74.75;99765.94;5093518;28;19916;-37
2023/04/23 03:35:46;;;;;;;;;;;;;;;10.96;75.94;99763.28;5093618;28;19912;-36
2023/04/23 03:38:11;;;;;;;;;;;;;;;10.72;76.51;99770.03;5093665;28;19968;-36
2023/04/23 03:40:36;;;;;;;;;;;;;;;10.80;77.10;99774.34;5093622;28;20280;-36
2023/04/23 03:43:02;;;;;;;;;;;;;;;11.00;76.26;99770.88;5093538;28;19912;-36
2023/04/23 03:45:27;;;;;;;;;;;;;;;11.20;76.85;99774.34;5093328;28;20018;-36
2023/04/23 03:47:52;;;;;;;;;;;;;;;11.24;76.26;99777.41;5093325;28;20292;-37
2023/04/23 03:50:18;;;;;;;;;;;;;;;10.74;78.69;99778.66;5093154;28;19912;-37
2023/04/23 03:52:43;;;;;;;;;;;;;;;10.86;78.77;99770.88;5093321;28;19955;-36
2023/04/23 03:55:08;;;;;;;;;;;;;;;10.78;80.49;99775.59;5091986;28;20074;-37
2023/04/23 03:57:34;;;;;;;;;;;;;;;10.72;80.22;99777.22;5093093;28;19918;-36
2023/04/23 04:00:00;;;;;;;;;;;;;;;10.85;80.96;99773.72;5093153;28;19996;-37
2023/04/23 04:02:25;;;;;;;;;;;;;;;10.75;80.99;99777.59;5093073;28;20341;-36
2023/04/23 04:04:51;;;;;;;;;;;;;;;10.85;80.98;99784.38;5093157;28;19920;-37
2023/04/23 04:07:17;;;;;;;;;;;;;;;10.99;80.88;99794.03;5093146;28;19934;-37
2023/04/23 04:09:42;;;;;;;;;;;;;;;10.79;82.70;99786.00;5092917;28;20399;-37
2023/04/23 04:12:07;;;;;;;;;;;;;;;10.83;83.17;99789.91;5092858;28;19961;-36
2023/04/23 04:14:32;;;;;;;;;;;;;;;10.84;82.95;99788.06;5092942;28;19935;-36
2023/04/23 04:16:58;;;;;;;;;;;;;;;11.39;79.45;99798.50;5092817;28;19919;-37
2023/04/23 04:19:23;;;;;;;;;;;;;;;11.20;80.17;99795.66;5092871;28;19912;-37
2023/04/23 04:21:50;;;;;;;;;;;;;;;11.18;81.12;99797.69;5092766;28;19912;-36
2023/04/23 04:24:15;;;;;;;;;;;;;;;11.44;80.52;99804.84;5092516;28;19995;-36
2023/04/23 04:26:40;;;;;;;;;;;;;;;11.86;78.86;99809.84;5092569;28;20058;-36
2023/04/23 04:29:07;;;;;;;;;;;;;;;12.49;75.59;99807.38;5092806;28;20378;-36
2023/04/23 04:31:33;;;;;;;;;;;;;;;12.99;71.89;99811.13;5092641;28;19912;-37
2023/04/23 04:33:58;;;;;;;;;;;;;;;12.85;71.56;99810.41;5092156;28;19997;-36
2023/04/23 04:36:25;;;;;;;;;;;;;;;13.30;70.53;99811.09;5092398;28;19969;-36
2023/04/23 04:38:52;;;;;;;;;;;;;;;13.02;71.26;99816.03;5088943;28;19925;-37
2023/04/23 04:41:18;;;;;;;;;;;;;;;13.14;71.59;99822.31;5092168;28;20349;-37
2023/04/23 04:43:44;;;;;;;;;;;;;;;13.41;70.16;99820.25;5092076;28;19919;-36
2023/04/23 04:46:14;;;;;;;;;;;;;;;13.79;67.98;99826.47;5092270;28;19916;-37
2023/04/23 04:48:39;;;;;;;;;;;;;;;13.93;66.37;99824.47;5092250;28;20006;-37
2023/04/23 04:51:05;;;;;;;;;;;;;;;13.82;66.80;99826.00;5092107;28;20352;-36
2023/04/23 04:53:30;;;;;;;;;;;;;;;14.71;65.42;99834.38;5090793;28;20401;-37
2023/04/23 04:55:55;;;;;;;;;;;;;;;14.52;62.79;99835.47;5093660;28;19916;-36
2023/04/23 04:58:21;;;;;;;;;;;;;;;14.45;61.80;99839.03;5102861;28;20324;-37
2023/04/23 05:00:50;;;;;;;;;;;;;;;14.62;61.80;99839.25;5102995;28;19918;-37
2023/04/23 05:03:16;;;;;;;;;;;;;;;15.36;60.93;99846.16;5102894;28;20064;-37
2023/04/23 05:05:41;;;;;;;;;;;;;;;15.06;60.42;99841.72;5101296;28;20003;-37
2023/04/23 05:08:07;;;;;;;;;;;;;;;14.78;62.25;99845.00;5103044;28;19916;-37
2023/04/23 05:10:32;;;;;;;;;;;;;;;14.48;63.25;99845.81;5100094;28;19920;-37
2023/04/23 05:13:00;;;;;;;;;;;;;;;14.53;63.18;99847.81;5096713;28;19919;-36
2023/04/23 05:15:25;;;;;;;;;;;;;;;14.40;63.73;99846.13;5091769;28;19912;-37
2023/04/23 05:17:52;;;;;;;;;;;;;;;14.41;62.52;99848.56;5090149;28;19923;-36
2023/04/23 05:20:17;;;;;;;;;;;;;;;14.74;62.10;99858.03;5090179;28;19916;-36
2023/04/23 05:22:43;;;;;;;;;;;;;;;14.27;63.16;99853.25;5089894;28;19973;-37
2023/04/23 05:25:10;;;;;;;;;;;;;;;14.47;61.93;99853.03;5089563;28;20011;-37
2023/04/23 05:27:35;;;;;;;;;;;;;;;14.43;62.14;99848.31;5089898;28;20004;-38
2023/04/23 05:30:01;;;;;;;;;;;;;;;15.09;60.99;99854.63;5090209;28;20022;-37
2023/04/23 05:32:26;;;;;;;;;;;;;;;15.90;58.75;99857.59;5090057;28;19916;-38
2023/04/23 05:34:51;;;;;;;;;;;;;;;16.11;58.00;99858.03;5089822;28;20236;-38
2023/04/23 05:37:17;;;;;;;;;;;;;;;15.88;56.60;99850.81;5089769;28;19961;-38
2023/04/23 05:39:44;;;;;;;;;;;;;;;15.95;55.89;99852.31;5089872;28;20356;-37
2023/04/23 05:42:09;;;;;;;;;;;;;;;15.77;56.94;99853.31;5089920;28;19961;-37
2023/04/23 05:44:35;;;;;;;;;;;;;;;17.42;53.37;99857.19;5089690;28;20369;-37
2023/04/23 05:47:00;;;;;;;;;;;;;;;17.46;52.00;99863.72;5091055;28;19932;-37
2023/04/23 05:49:26;;;;;;;;;;;;;;;17.52;51.95;99848.47;5093493;28;19912;-37
2023/04/23 05:51:51;;;;;;;;;;;;;;;17.28;52.06;99855.88;5091401;28;20015;-37
2023/04/23 05:54:17;;;;;;;;;;;;;;;18.47;50.76;99859.13;5093526;28;19912;-37
2023/04/23 05:56:42;;;;;;;;;;;;;;;19.11;47.71;99859.25;5090724;28;19944;-38
2023/04/23 05:59:07;;;;;;;;;;;;;;;18.70;48.63;99858.03;5093824;28;20539;-37
2023/04/23 06:01:33;;;;;;;;;;;;;;;18.62;48.61;99859.28;5093569;28;19912;-36
2023/04/23 06:03:58;;;;;;;;;;;;;;;19.20;47.31;99864.16;5091770;28;20554;-37
2023/04/23 06:06:24;;;;;;;;;;;;;;;19.26;46.62;99869.31;5092819;28;19916;-36
2023/04/23 06:08:50;;;;;;;;;;;;;;;19.40;46.26;99868.88;5092635;28;20000;-36
2023/04/23 06:11:15;;;;;;;;;;;;;;;19.62;45.65;99864.19;5088578;28;19923;-36
2023/04/23 06:13:41;;;;;;;;;;;;;;;19.57;44.81;99866.84;5096495;28;19920;-38
2023/04/23 06:16:07;;;;;;;;;;;;;;;19.28;45.99;99871.78;5092948;28;19919;-36
2023/04/23 06:18:33;;;;;;;;;;;;;;;19.25;45.52;99861.50;5093066;28;19912;-37
2023/04/23 06:21:03;;;;;;;;;;;;;;;19.03;46.26;99865.09;5093444;28;19912;-35
2023/04/23 06:23:28;;;;;;;;;;;;;;;18.73;47.18;99869.09;5093115;28;20072;-36
2023/04/23 06:25:53;;;;;;;;;;;;;;;19.76;45.98;99869.97;5100515;28;20010;-36
2023/04/23 06:28:19;;;;;;;;;;;;;;;18.87;47.48;99868.72;5103548;28;19919;-35
2023/04/23 06:30:44;;;;;;;;;;;;;;;18.62;48.00;99867.38;5104899;28;19923;-37
2023/04/23 06:33:09;;;;;;;;;;;;;;;18.57;49.28;99864.63;5102959;28;19912;-37
2023/04/23 06:35:35;;;;;;;;;;;;;;;18.39;49.98;99871.16;5102819;28;19912;-36
2023/04/23 06:38:00;;;;;;;;;;;;;;;18.23;49.58;99864.78;5103530;28;19973;-37
2023/04/23 06:40:25;;;;;;;;;;;;;;;18.10;50.14;99863.25;5104823;28;20388;-37
2023/04/23 06:42:50;;;;;;;;;;;;;;;18.03;50.54;99859.97;5103328;28;19973;-37
2023/04/23 06:45:16;;;;;;;;;;;;;;;18.26;50.21;99861.59;5103033;28;19965;-35
2023/04/23 06:47:41;;;;;;;;;;;;;;;18.03;50.87;99865.34;5103824;28;19992;-36
2023/04/23 06:50:07;;;;;;;;;;;;;;;18.76;49.79;99863.19;5102248;28;19919;-36
2023/04/23 06:52:32;;;;;;;;;;;;;;;19.03;48.25;99865.09;5105168;28;19916;-36
2023/04/23 06:54:58;;;;;;;;;;;;;;;18.85;48.31;99860.91;5100941;28;20395;-36
2023/04/23 06:57:23;;;;;;;;;;;;;;;19.16;47.31;99860.34;5104809;28;19999;-36
2023/04/23 06:59:48;;;;;;;;;;;;;;;20.07;46.55;99864.75;5102626;28;20364;-37
2023/04/23 07:02:14;;;;;;;;;;;;;;;21.03;44.14;99865.28;5104694;28;20006;-37
2023/04/23 07:04:39;;;;;;;;;;;;;;;21.25;43.80;99873.94;5094763;28;19923;-37
2023/04/23 07:07:05;;;;;;;;;;;;;;;21.25;42.43;99865.03;5095148;28;20057;-36
2023/04/23 07:09:30;;;;;;;;;;;;;;;21.42;42.28;99868.25;5097058;28;19956;-36
2023/04/23 07:11:56;;;;;;;;;;;;;;;22.25;40.61;99872.41;5093193;28;19992;-37
2023/04/23 07:14:21;;;;;;;;;;;;;;;21.77;41.92;99873.91;5097106;28;19919;-36
2023/04/23 07:16:46;;;;;;;;;;;;;;;21.44;41.81;99874.22;5112662;28;19912;-36
2023/04/23 07:19:11;;;;;;;;;;;;;;;22.58;42.55;99867.38;5102621;28;19912;-36
2023/04/23 07:21:37;;;;;;;;;;;;;;;24.27;40.41;99861.53;5093030;28;19912;-37
2023/04/23 07:24:05;;;;;;;;;;;;;;;25.36;37.43;99868.66;5093216;28;20008;-37
2023/04/23 07:26:34;;;;;;;;;;;;;;;26.26;33.56;99854.69;5092201;28;19980;-37
2023/04/23 07:29:00;;;;;;;;;;;;;;;26.41;32.29;99860.94;5093037;28;19939;-37
2023/04/23 07:31:25;;;;;;;;;;;;;;;25.91;32.69;99869.81;5092741;28;20420;-37
2023/04/23 07:33:51;;;;;;;;;;;;;;;26.48;32.25;99866.75;5092653;28;19916;-34
2023/04/23 07:36:16;;;;;;;;;;;;;;;26.90;32.40;99857.38;5092097;28;19918;-36
2023/04/23 07:38:41;;;;;;;;;;;;;;;27.03;32.30;99854.88;5090831;28;19911;-37
2023/04/23 07:41:07;;;;;;;;;;;;;;;27.61;31.58;99850.41;5092524;28;19912;-36
2023/04/23 07:43:32;;;;;;;;;;;;;;;28.57;30.29;99848.75;5092575;28;19912;-37
2023/04/23 07:45:57;;;;;;;;;;;;;;;29.27;28.95;99847.94;5072076;28;20330;-37
2023/04/23 07:48:23;;;;;;;;;;;;;;;29.53;28.13;99845.91;5071870;28;19913;-37
2023/04/23 07:50:48;;;;;;;;;;;;;;;29.48;28.34;99848.03;5077898;28;20414;-37
2023/04/23 07:53:13;;;;;;;;;;;;;;;29.16;28.88;99850.19;5092152;28;19912;-36
2023/04/23 07:55:39;;;;;;;;;;;;;;;29.89;27.96;99844.66;5091755;28;20370;-37
2023/04/23 07:58:05;;;;;;;;;;;;;;;30.40;27.11;99844.66;5091094;28;20322;-36
2023/04/23 08:00:30;;;;;;;;;;;;;;;30.57;26.62;99847.28;5092468;28;19919;-36
2023/04/23 08:02:55;;;;;;;;;;;;;;;30.60;25.59;99841.13;5091838;28;20391;-38
2023/04/23 08:05:21;;;;;;;;;;;;;;;29.48;26.37;99843.34;5091650;28;20018;-36
2023/04/23 08:07:46;;;;;;;;;;;;;;;29.39;27.25;99843.34;5091902;28;19931;-37
2023/04/23 08:10:11;;;;;;;;;;;;;;;29.07;27.57;99824.72;5090886;28;19920;-37
2023/04/23 08:12:36;;;;;;;;;;;;;;;27.24;30.29;99842.31;5095102;28;19955;-37
2023/04/23 08:15:02;;;;;;;;;;;;;;;26.66;29.83;99835.00;5112249;27;19912;-37
2023/04/23 08:17:27;;;;;;;;;;;;;;;27.45;29.49;99841.81;5112522;28;20323;-37
2023/04/23 08:19:52;;;;;;;;;;;;;;;26.64;29.35;99831.78;5111974;28;19912;-37
2023/04/23 08:22:18;;;;;;;;;;;;;;;26.27;30.11;99833.66;5112307;28;20030;-37
2023/04/23 08:24:45;;;;;;;;;;;;;;;26.36;30.13;99837.28;5112022;28;20348;-37
2023/04/23 08:27:10;;;;;;;;;;;;;;;25.24;30.86;99832.91;5112001;28;19923;-37
2023/04/23 08:29:36;;;;;;;;;;;;;;;25.38;30.50;99821.22;5112099;28;20002;-36
2023/04/23 08:32:01;;;;;;;;;;;;;;;24.48;32.63;99827.50;5112102;28;19916;-36
2023/04/23 08:34:26;;;;;;;;;;;;;;;25.24;31.15;99832.91;5112110;28;19911;-36
2023/04/23 08:36:51;;;;;;;;;;;;;;;25.54;30.86;99833.47;5111759;28;19915;-37
2023/04/23 08:39:17;;;;;;;;;;;;;;;25.52;31.35;99828.31;5111898;28;20027;-36
2023/04/23 08:41:44;;;;;;;;;;;;;;;26.14;27.75;99827.09;5111590;28;19969;-37
2023/04/23 08:44:16;;;;;;;;;;;;;;;25.11;29.97;99822.75;5112197;28;19976;-36
2023/04/23 08:46:42;;;;;;;;;;;;;;;25.94;28.70;99823.69;5111655;28;20015;-36
2023/04/23 08:49:11;;;;;;;;;;;;;;;24.19;30.56;99819.47;5111873;28;19923;-37
2023/04/23 08:51:38;;;;;;;;;;;;;;;25.07;30.17;99819.81;5095689;28;20022;-36
2023/04/23 08:54:07;;;;;;;;;;;;;;;25.39;29.52;99826.38;5091384;28;19951;-36
2023/04/23 08:56:32;;;;;;;;;;;;;;;25.92;29.86;99814.22;5091121;28;19916;-37
2023/04/23 08:58:58;;;;;;;;;;;;;;;26.90;27.90;99810.94;5091165;28;19912;-36
2023/04/23 09:01:24;;;;;;;;;;;;;;;25.72;28.64;99813.50;5088380;28;19978;-37
2023/04/23 09:03:50;;;;;;;;;;;;;;;25.12;28.84;99808.84;5090952;28;19973;-37
2023/04/23 09:06:15;;;;;;;;;;;;;;;25.43;29.30;99811.03;5090727;28;20351;-36
2023/04/23 09:08:41;;;;;;;;;;;;;;;25.73;28.43;99801.47;5091162;28;20057;-37
2023/04/23 09:11:06;;;;;;;;;;;;;;;25.46;28.65;99810.44;5091126;28;19998;-37
2023/04/23 09:13:32;;;;;;;;;;;;;;;24.93;29.90;99805.38;5101539;28;19916;-36
2023/04/23 09:15:58;;;;;;;;;;;;;;;25.73;28.32;99803.41;5111357;28;19912;-36
2023/04/23 09:18:23;;;;;;;;;;;;;;;25.10;28.74;99797.44;5095819;28;19973;-36
2023/04/23 09:20:49;;;;;;;;;;;;;;;24.24;29.73;99800.41;5091135;28;19961;-36
2023/04/23 09:23:15;;;;;;;;;;;;;;;23.82;31.06;99793.88;5090636;28;20367;-36
2023/04/23 09:25:40;;;;;;;;;;;;;;;23.06;32.19;99798.97;5089900;28;20019;-37
2023/04/23 09:28:06;;;;;;;;;;;;;;;23.50;31.68;99799.91;5090199;28;20008;-36
2023/04/23 09:30:37;;;;;;;;;;;;;;;23.77;31.99;99796.59;5090322;28;19922;-37
2023/04/23 09:33:03;;;;;;;;;;;;;;;24.02;34.87;99784.63;5090642;28;19959;-38
2023/04/23 09:35:31;;;;;;;;;;;;;;;23.53;32.08;99791.16;5090341;28;19916;-36
2023/04/23 09:37:57;;;;;;;;;;;;;;;25.04;31.80;99782.31;5091053;28;19912;-37
2023/04/23 09:40:23;;;;;;;;;;;;;;;24.39;30.54;99783.84;5091081;28;19912;-37
2023/04/23 09:42:49;;;;;;;;;;;;;;;25.51;29.95;99787.75;5090588;28;20559;-37
2023/04/23 09:45:14;;;;;;;;;;;;;;;25.48;29.03;99778.28;5090286;28;19917;-37
2023/04/23 09:47:59;;;;;;;;;;;;;;;25.15;28.80;99775.59;5090999;28;19919;-38
2023/04/23 09:50:32;;;;;;;;;;;;;;;23.94;29.71;99774.44;5090819;28;19919;-36
2023/04/23 09:52:57;;;;;;;;;;;;;;;23.80;30.13;99769.69;5091461;28;19966;-37
2023/04/23 09:55:27;;;;;;;;;;;;;;;24.07;34.13;99762.03;5090503;28;20379;-37
2023/04/23 09:57:52;;;;;;;;;;;;;;;24.50;29.98;99767.38;5090612;28;19935;-36
2023/04/23 10:00:18;;;;;;;;;;;;;;;24.60;37.33;99770.00;5090778;28;19923;-37
2023/04/23 10:02:47;;;;;;;;;;;;;;;25.01;29.54;99761.13;5090206;28;20006;-37
2023/04/23 10:05:20;;;;;;;;;;;;;;;25.20;30.32;99761.06;5090275;28;19923;-36
2023/04/23 10:07:47;;;;;;;;;;;;;;;25.31;30.02;99748.91;5090770;28;19913;-36
2023/04/23 10:10:13;;;;;;;;;;;;;;;26.00;29.46;99741.81;5090738;28;20384;-37
2023/04/23 10:12:39;;;;;;;;;;;;;;;26.76;28.09;99744.69;5093573;28;19918;-37
2023/04/23 10:15:04;;;;;;;;;;;;;;;26.05;27.62;99747.16;5110955;28;19912;-35
2023/04/23 10:17:30;;;;;;;;;;;;;;;25.16;28.64;99749.16;5110380;28;19916;-35
2023/04/23 10:19:56;;;;;;;;;;;;;;;24.30;29.58;99741.31;5110966;28;20090;-36
2023/04/23 10:22:23;;;;;;;;;;;;;;;24.07;29.92;99745.72;5110890;28;20019;-36
2023/04/23 10:24:51;;;;;;;;;;;;;;;24.72;29.98;99736.88;5110341;28;19927;-37
2023/04/23 10:27:18;;;;;;;;;;;;;;;25.40;29.67;99735.41;5109937;28;20022;-37
2023/04/23 10:29:44;;;;;;;;;;;;;;;25.17;29.34;99726.28;5110927;28;19912;-38
2023/04/23 10:32:10;;;;;;;;;;;;;;;25.13;29.78;99726.06;5110763;28;19919;-37
2023/04/23 10:34:35;;;;;;;;;;;;;;;25.83;28.04;99715.97;5114637;28;20002;-36
2023/04/23 10:37:01;;;;;;;;;;;;;;;26.14;27.62;99705.22;5114422;28;20484;-36
2023/04/23 10:39:29;;;;;;;;;;;;;;;25.27;28.78;99708.97;5114292;28;19998;-35
2023/04/23 10:41:54;;;;;;;;;;;;;;;24.06;30.35;99715.00;5114648;28;19912;-37
2023/04/23 10:44:22;;;;;;;;;;;;;;;24.17;30.75;99705.59;5114502;28;19933;-37
2023/04/23 10:46:52;;;;;;;;;;;;;;;23.47;30.43;99705.44;5114028;28;20014;-37
2023/04/23 10:49:17;;;;;;;;;;;;;;;23.97;30.49;99701.28;5113967;28;19916;-37
2023/04/23 10:51:46;;;;;;;;;;;;;;;24.81;30.83;99698.88;5114505;28;19919;-37
2023/04/23 10:54:15;;;;;;;;;;;;;;;25.25;29.38;99701.09;5114121;28;19941;-36
2023/04/23 10:56:41;;;;;;;;;;;;;;;24.52;30.14;99700.75;5113751;28;19911;-36
2023/04/23 10:59:07;;;;;;;;;;;;;;;24.48;30.45;99685.28;5114232;28;20315;-36
2023/04/23 11:01:33;;;;;;;;;;;;;;;25.11;29.65;99684.72;5114066;28;20396;-37
2023/04/23 11:03:59;;;;;;;;;;;;;;;25.73;29.34;99673.41;5113861;28;20398;-36
2023/04/23 11:06:56;;;;;;;;;;;;;;;24.90;29.81;99678.88;5113732;28;20030;-37
2023/04/23 11:09:27;;;;;;;;;;;;;;;24.02;30.49;99670.50;5101690;28;20380;-36
2023/04/23 11:11:53;;;;;;;;;;;;;;;23.18;31.61;99671.81;5113408;28;20011;-36
2023/04/23 11:14:19;;;;;;;;;;;;;;;22.68;31.91;99673.94;5113682;28;19968;-37
2023/04/23 11:16:44;;;;;;;;;;;;;;;23.18;31.91;99663.69;5113389;28;19916;-36
2023/04/23 11:19:11;;;;;;;;;;;;;;;23.96;30.63;99664.31;5113505;28;20011;-36
2023/04/23 11:21:55;;;;;;;;;;;;;;;24.52;30.04;99653.69;5113007;28;20310;-37
2023/04/23 11:24:24;;;;;;;;;;;;;;;23.23;31.55;99662.81;5113275;28;20406;-37
2023/04/23 11:26:51;;;;;;;;;;;;;;;23.73;31.07;99657.03;5113603;28;19963;-37
2023/04/23 11:29:17;;;;;;;;;;;;;;;23.84;30.99;99657.72;5113607;28;19911;-37
2023/04/23 11:31:43;;;;;;;;;;;;;;;23.77;30.66;99667.00;5113114;28;19957;-38
2023/04/23 11:34:09;;;;;;;;;;;;;;;23.20;31.06;99653.34;5113279;28;19943;-37
2023/04/23 11:36:34;;;;;;;;;;;;;;;23.78;30.61;99655.09;5113163;28;19912;-36
2023/04/23 11:39:01;;;;;;;;;;;;;;;23.66;30.93;99660.09;5113262;28;19960;-37
2023/04/23 11:41:29;;;;;;;;;;;;;;;23.16;31.03;99655.03;5113022;28;20346;-37
2023/04/23 11:43:55;;;;;;;;;;;;;;;24.07;29.99;99654.13;5112562;28;19912;-36
2023/04/23 11:46:20;;;;;;;;;;;;;;;23.52;30.10;99645.63;5112867;28;19980;-37
2023/04/23 11:48:47;;;;;;;;;;;;;;;23.37;30.12;99644.72;5112966;28;20288;-37
2023/04/23 11:51:12;;;;;;;;;;;;;;;23.90;30.41;99641.06;5112675;28;20002;-37
2023/04/23 11:53:43;;;;;;;;;;;;;;;24.59;28.99;99640.50;5112457;28;20038;-36
2023/04/23 11:56:09;;;;;;;;;;;;;;;25.20;28.71;99648.63;5112352;28;19912;-37
2023/04/23 11:58:34;;;;;;;;;;;;;;;24.67;29.07;99630.84;5112780;28;19961;-37
2023/04/23 12:01:01;;;;;;;;;;;;;;;24.84;28.46;99630.28;5112988;28;20399;-37
2023/04/23 12:03:27;;;;;;;;;;;;;;;24.65;28.76;99627.63;5112483;28;19919;-37
2023/04/23 12:05:54;;;;;;;;;;;;;;;24.84;28.21;99617.47;5111852;28;20403;-36
2023/04/23 12:08:20;;;;;;;;;;;;;;;24.68;29.26;99619.69;5112888;28;19919;-37
2023/04/23 12:10:48;;;;;;;;;;;;;;;25.01;28.81;99621.50;5112853;28;19919;-36
2023/04/23 12:13:14;;;;;;;;;;;;;;;24.45;28.02;99615.97;5112358;28;19912;-37
2023/04/23 12:15:46;;;;;;;;;;;;;;;24.32;28.24;99614.03;5112056;28;19978;-37
2023/04/23 12:18:11;;;;;;;;;;;;;;;23.71;29.00;99616.56;5112388;28;19982;-38
2023/04/23 12:20:38;;;;;;;;;;;;;;;23.94;28.64;99609.47;5112337;27;20390;-36
2023/04/23 12:23:05;;;;;;;;;;;;;;;24.32;27.68;99605.88;5111711;28;19912;-37
2023/04/23 12:25:31;;;;;;;;;;;;;;;24.39;27.67;99601.66;5084342;28;20041;-36
2023/04/23 12:28:00;;;;;;;;;;;;;;;24.33;27.52;99593.88;5089727;28;20241;-37
2023/04/23 12:30:28;;;;;;;;;;;;;;;24.85;27.44;99574.75;5091651;28;19974;-36
2023/04/23 12:33:00;;;;;;;;;;;;;;;24.83;27.52;99575.06;5091645;28;19920;-37
2023/04/23 12:35:56;;;;;;;;;;;;;;;25.27;26.39;99568.19;5087611;28;19912;-37
2023/04/23 12:38:24;;;;;;;;;;;;;;;24.65;26.83;99575.94;5066408;28;20400;-36
2023/04/23 12:40:50;;;;;;;;;;;;;;;24.46;27.84;99560.47;5071335;28;19943;-36
2023/04/23 12:43:15;;;;;;;;;;;;;;;24.59;27.74;99570.59;5071001;28;19912;-37